sensor_id;sensor_type;location;lat;lon;timestamp;temperature;humidity
29725;DHT22;16636;48.394;15.468;2023-04-25T00:00:12;11.00;99.90
29725;DHT22;16636;48.394;15.468;2023-04-25T00:02:38;11.00;99.90
29725;DHT22;16636;48.394;15.468;2023-04-25T00:05:04;11.00;99.90
29725;DHT22;16636;48.394;15.468;2023-04-25T00:07:30;11.00;99.90
29725;DHT22;16636;48.394;15.468;2023-04-25T00:09:58;11.00;99.90
29725;DHT22;16636;48.394;15.468;2023-04-25T00:12:24;11.00;99.90
29725;DHT22;16636;48.394;15.468;2023-04-25T00:14:49;11.00;99.90
29725;DHT22;16636;48.394;15.468;2023-04-25T00:17:15;11.00;99.90
29725;DHT22;16636;48.394;15.468;2023-04-25T00:19:42;11.00;99.90
29725;DHT22;16636;48.394;15.468;2023-04-25T00:22:10;11.00;99.90
29725;DHT22;16636;48.394;15.468;2023-04-25T00:24:36;11.00;99.90
29725;DHT22;16636;48.394;15.468;2023-04-25T00:27:02;11.00;99.90
29725;DHT22;16636;48.394;15.468;2023-04-25T00:29:27;10.90;99.90
29725;DHT22;16636;48.394;15.468;2023-04-25T00:31:53;10.90;99.90
29725;DHT22;16636;48.394;15.468;2023-04-25T00:34:19;10.90;99.90
29725;DHT22;16636;48.394;15.468;2023-04-25T00:36:46;10.90;99.90
29725;DHT22;16636;48.394;15.468;2023-04-25T00:39:12;10.90;99.90
29725;DHT22;16636;48.394;15.468;2023-04-25T00:41:38;10.90;99.90
29725;DHT22;16636;48.394;15.468;2023-04-25T00:44:04;10.90;99.90
29725;DHT22;16636;48.394;15.468;2023-04-25T00:46:32;10.90;99.90
29725;DHT22;16636;48.394;15.468;2023-04-25T00:48:58;10.80;99.90
29725;DHT22;16636;48.394;15.468;2023-04-25T00:51:24;10.80;99.90
29725;DHT22;16636;48.394;15.468;2023-04-25T00:53:52;10.80;99.90
29725;DHT22;16636;48.394;15.468;2023-04-25T00:56:18;10.80;99.90
29725;DHT22;16636;48.394;15.468;2023-04-25T00:58:44;10.70;99.90
29725;DHT22;16636;48.394;15.468;2023-04-25T01:01:11;10.80;99.90
29725;DHT22;16636;48.394;15.468;2023-04-25T01:03:37;10.80;99.90
29725;DHT22;16636;48.394;15.468;2023-04-25T01:06:09;10.80;99.90
29725;DHT22;16636;48.394;15.468;2023-04-25T01:08:36;10.80;99.90
29725;DHT22;16636;48.394;15.468;2023-04-25T01:11:02;10.80;99.90
29725;DHT22;16636;48.394;15.468;2023-04-25T01:13:28;10.80;99.90
29725;DHT22;16636;48.394;15.468;2023-04-25T01:15:54;10.70;99.90
29725;DHT22;16636;48.394;15.468;2023-04-25T01:18:20;10.60;99.90
29725;DHT22;16636;48.394;15.468;2023-04-25T01:20:47;10.60;99.90
29725;DHT22;16636;48.394;15.468;2023-04-25T01:23:15;10.60;99.90
29725;DHT22;16636;48.394;15.468;2023-04-25T01:25:41;10.60;99.90
29725;DHT22;16636;48.394;15.468;2023-04-25T01:28:07;10.50;99.90
29725;DHT22;16636;48.394;15.468;2023-04-25T01:30:33;10.50;99.90
29725;DHT22;16636;48.394;15.468;2023-04-25T01:33:00;10.40;99.90
29725;DHT22;16636;48.394;15.468;2023-04-25T01:35:28;10.40;99.90
29725;DHT22;16636;48.394;15.468;2023-04-25T01:37:54;10.30;99.90
29725;DHT22;16636;48.394;15.468;2023-04-25T01:40:20;10.30;99.90
29725;DHT22;16636;48.394;15.468;2023-04-25T01:42:46;10.30;99.90
29725;DHT22;16636;48.394;15.468;2023-04-25T01:45:12;10.20;99.90
29725;DHT22;16636;48.394;15.468;2023-04-25T01:47:38;10.20;99.90
29725;DHT22;16636;48.394;15.468;2023-04-25T01:50:06;10.20;99.90
29725;DHT22;16636;48.394;15.468;2023-04-25T01:52:33;10.10;99.90
29725;DHT22;16636;48.394;15.468;2023-04-25T01:54:59;10.10;99.90
29725;DHT22;16636;48.394;15.468;2023-04-25T01:57:27;10.10;99.90
29725;DHT22;16636;48.394;15.468;2023-04-25T02:00:00;10.00;99.90
29725;DHT22;16636;48.394;15.468;2023-04-25T02:02:47;10.10;99.90
29725;DHT22;16636;48.394;15.468;2023-04-25T02:05:25;10.00;99.90
29725;DHT22;16636;48.394;15.468;2023-04-25T02:07:51;10.00;99.90
29725;DHT22;16636;48.394;15.468;2023-04-25T02:10:17;10.00;99.90
29725;DHT22;16636;48.394;15.468;2023-04-25T02:13:12;9.90;99.90
29725;DHT22;16636;48.394;15.468;2023-04-25T02:15:49;9.90;99.90
29725;DHT22;16636;48.394;15.468;2023-04-25T02:18:17;9.80;99.90
29725;DHT22;16636;48.394;15.468;2023-04-25T02:20:44;9.80;99.90
29725;DHT22;16636;48.394;15.468;2023-04-25T02:23:10;9.70;99.90
29725;DHT22;16636;48.394;15.468;2023-04-25T02:25:36;9.70;99.90
29725;DHT22;16636;48.394;15.468;2023-04-25T02:28:02;9.70;99.90
29725;DHT22;16636;48.394;15.468;2023-04-25T02:30:28;9.60;99.90
29725;DHT22;16636;48.394;15.468;2023-04-25T02:32:54;9.60;99.90
29725;DHT22;16636;48.394;15.468;2023-04-25T02:35:20;9.60;99.90
29725;DHT22;16636;48.394;15.468;2023-04-25T02:37:46;9.60;99.90
29725;DHT22;16636;48.394;15.468;2023-04-25T02:40:12;9.60;99.90
29725;DHT22;16636;48.394;15.468;2023-04-25T02:42:38;9.60;99.90
29725;DHT22;16636;48.394;15.468;2023-04-25T02:45:04;9.60;99.90
29725;DHT22;16636;48.394;15.468;2023-04-25T02:47:31;9.50;99.90
29725;DHT22;16636;48.394;15.468;2023-04-25T02:49:56;9.50;99.90
29725;DHT22;16636;48.394;15.468;2023-04-25T02:52:22;9.50;99.90
29725;DHT22;16636;48.394;15.468;2023-04-25T02:54:56;9.50;99.90
29725;DHT22;16636;48.394;15.468;2023-04-25T02:57:22;9.50;99.90
29725;DHT22;16636;48.394;15.468;2023-04-25T02:59:48;9.50;99.90
29725;DHT22;16636;48.394;15.468;2023-04-25T03:02:14;9.50;99.90
29725;DHT22;16636;48.394;15.468;2023-04-25T03:04:40;9.50;99.90
29725;DHT22;16636;48.394;15.468;2023-04-25T03:07:06;9.40;99.90
29725;DHT22;16636;48.394;15.468;2023-04-25T03:09:32;9.40;99.90
29725;DHT22;16636;48.394;15.468;2023-04-25T03:11:58;9.30;99.90
29725;DHT22;16636;48.394;15.468;2023-04-25T03:14:23;9.30;99.90
29725;DHT22;16636;48.394;15.468;2023-04-25T03:16:50;9.20;99.90
29725;DHT22;16636;48.394;15.468;2023-04-25T03:19:16;9.10;99.90
29725;DHT22;16636;48.394;15.468;2023-04-25T03:21:43;9.10;99.90
29725;DHT22;16636;48.394;15.468;2023-04-25T03:24:09;9.10;99.90
29725;DHT22;16636;48.394;15.468;2023-04-25T03:26:36;9.00;99.90
29725;DHT22;16636;48.394;15.468;2023-04-25T03:29:02;9.00;99.90
29725;DHT22;16636;48.394;15.468;2023-04-25T03:31:28;9.00;99.90
29725;DHT22;16636;48.394;15.468;2023-04-25T03:33:54;9.00;99.90
29725;DHT22;16636;48.394;15.468;2023-04-25T03:36:21;8.90;99.90
29725;DHT22;16636;48.394;15.468;2023-04-25T03:38:48;8.90;99.90
29725;DHT22;16636;48.394;15.468;2023-04-25T03:41:15;8.90;99.90
29725;DHT22;16636;48.394;15.468;2023-04-25T03:43:44;8.90;99.90
29725;DHT22;16636;48.394;15.468;2023-04-25T03:46:12;8.80;99.90
29725;DHT22;16636;48.394;15.468;2023-04-25T03:48:39;8.80;99.90
29725;DHT22;16636;48.394;15.468;2023-04-25T03:51:06;8.80;99.90
29725;DHT22;16636;48.394;15.468;2023-04-25T03:53:36;8.80;99.90
29725;DHT22;16636;48.394;15.468;2023-04-25T03:56:28;8.80;99.90
29725;DHT22;16636;48.394;15.468;2023-04-25T03:59:00;8.70;99.90
29725;DHT22;16636;48.394;15.468;2023-04-25T04:01:28;8.60;99.90
29725;DHT22;16636;48.394;15.468;2023-04-25T04:03:54;8.60;99.90
29725;DHT22;16636;48.394;15.468;2023-04-25T04:06:20;8.50;99.90
29725;DHT22;16636;48.394;15.468;2023-04-25T04:08:50;8.50;99.90
29725;DHT22;16636;48.394;15.468;2023-04-25T04:11:16;8.50;99.90
29725;DHT22;16636;48.394;15.468;2023-04-25T04:13:42;8.60;99.90
29725;DHT22;16636;48.394;15.468;2023-04-25T04:16:08;8.50;99.90
29725;DHT22;16636;48.394;15.468;2023-04-25T04:18:34;8.50;99.90
29725;DHT22;16636;48.394;15.468;2023-04-25T04:21:01;8.50;99.90
29725;DHT22;16636;48.394;15.468;2023-04-25T04:23:29;8.50;99.90
29725;DHT22;16636;48.394;15.468;2023-04-25T04:25:57;8.50;99.90
29725;DHT22;16636;48.394;15.468;2023-04-25T04:28:38;8.40;99.90
29725;DHT22;16636;48.394;15.468;2023-04-25T04:31:12;8.30;99.90
29725;DHT22;16636;48.394;15.468;2023-04-25T04:33:38;8.30;99.90
29725;DHT22;16636;48.394;15.468;2023-04-25T04:36:29;8.30;99.90
29725;DHT22;16636;48.394;15.468;2023-04-25T04:38:56;8.30;99.90
29725;DHT22;16636;48.394;15.468;2023-04-25T04:41:33;8.40;99.90
29725;DHT22;16636;48.394;15.468;2023-04-25T04:44:09;8.50;99.90
29725;DHT22;16636;48.394;15.468;2023-04-25T04:46:54;8.50;99.90
29725;DHT22;16636;48.394;15.468;2023-04-25T04:49:52;8.50;99.90
29725;DHT22;16636;48.394;15.468;2023-04-25T04:52:56;8.50;99.90
29725;DHT22;16636;48.394;15.468;2023-04-25T04:55:45;8.50;99.90
29725;DHT22;16636;48.394;15.468;2023-04-25T04:58:34;8.60;99.90
29725;DHT22;16636;48.394;15.468;2023-04-25T05:01:20;8.60;99.90
29725;DHT22;16636;48.394;15.468;2023-04-25T05:04:00;8.60;99.90
29725;DHT22;16636;48.394;15.468;2023-04-25T05:06:59;8.50;99.90
29725;DHT22;16636;48.394;15.468;2023-04-25T05:09:31;8.50;99.90
29725;DHT22;16636;48.394;15.468;2023-04-25T05:12:08;8.50;99.90
29725;DHT22;16636;48.394;15.468;2023-04-25T05:14:53;8.50;99.90
29725;DHT22;16636;48.394;15.468;2023-04-25T05:17:37;8.60;99.90
29725;DHT22;16636;48.394;15.468;2023-04-25T05:20:42;8.60;99.90
29725;DHT22;16636;48.394;15.468;2023-04-25T05:23:23;8.80;99.90
29725;DHT22;16636;48.394;15.468;2023-04-25T05:25:56;8.90;99.90
29725;DHT22;16636;48.394;15.468;2023-04-25T05:28:37;9.00;99.90
29725;DHT22;16636;48.394;15.468;2023-04-25T05:31:14;9.00;99.90
29725;DHT22;16636;48.394;15.468;2023-04-25T05:33:47;9.00;99.90
29725;DHT22;16636;48.394;15.468;2023-04-25T05:36:13;9.00;99.90
29725;DHT22;16636;48.394;15.468;2023-04-25T05:38:40;9.00;99.90
29725;DHT22;16636;48.394;15.468;2023-04-25T05:41:21;9.00;99.90
29725;DHT22;16636;48.394;15.468;2023-04-25T05:44:21;9.10;99.90
29725;DHT22;16636;48.394;15.468;2023-04-25T05:47:02;9.20;99.90
29725;DHT22;16636;48.394;15.468;2023-04-25T05:49:44;9.30;99.90
29725;DHT22;16636;48.394;15.468;2023-04-25T05:52:28;9.30;99.90
29725;DHT22;16636;48.394;15.468;2023-04-25T05:55:02;9.40;99.90
29725;DHT22;16636;48.394;15.468;2023-04-25T05:57:29;9.40;99.90
29725;DHT22;16636;48.394;15.468;2023-04-25T05:59:56;9.50;99.90
29725;DHT22;16636;48.394;15.468;2023-04-25T06:02:28;9.50;99.90
29725;DHT22;16636;48.394;15.468;2023-04-25T06:04:54;9.50;99.90
29725;DHT22;16636;48.394;15.468;2023-04-25T06:07:21;9.60;99.90
29725;DHT22;16636;48.394;15.468;2023-04-25T06:09:47;9.70;99.90
29725;DHT22;16636;48.394;15.468;2023-04-25T06:12:14;9.80;99.90
29725;DHT22;16636;48.394;15.468;2023-04-25T06:14:40;9.80;99.90
29725;DHT22;16636;48.394;15.468;2023-04-25T06:17:06;9.80;99.90
29725;DHT22;16636;48.394;15.468;2023-04-25T06:19:34;9.90;99.90
29725;DHT22;16636;48.394;15.468;2023-04-25T06:22:01;9.90;99.90
29725;DHT22;16636;48.394;15.468;2023-04-25T06:24:27;10.00;99.90
29725;DHT22;16636;48.394;15.468;2023-04-25T06:26:53;10.10;99.90
29725;DHT22;16636;48.394;15.468;2023-04-25T06:29:19;10.10;99.90
29725;DHT22;16636;48.394;15.468;2023-04-25T06:31:45;10.20;99.90
29725;DHT22;16636;48.394;15.468;2023-04-25T06:34:12;10.20;99.90
29725;DHT22;16636;48.394;15.468;2023-04-25T06:36:39;10.30;99.90
29725;DHT22;16636;48.394;15.468;2023-04-25T06:39:08;10.30;99.90
29725;DHT22;16636;48.394;15.468;2023-04-25T06:41:34;10.40;99.90
29725;DHT22;16636;48.394;15.468;2023-04-25T06:44:05;10.50;99.90
29725;DHT22;16636;48.394;15.468;2023-04-25T06:46:49;10.60;99.90
29725;DHT22;16636;48.394;15.468;2023-04-25T06:49:15;10.70;99.90
29725;DHT22;16636;48.394;15.468;2023-04-25T06:51:41;10.80;99.90
29725;DHT22;16636;48.394;15.468;2023-04-25T06:54:07;10.90;99.90
29725;DHT22;16636;48.394;15.468;2023-04-25T06:56:44;11.00;99.90
29725;DHT22;16636;48.394;15.468;2023-04-25T06:59:13;11.10;99.90
29725;DHT22;16636;48.394;15.468;2023-04-25T07:01:40;11.20;99.90
29725;DHT22;16636;48.394;15.468;2023-04-25T07:04:13;11.30;99.90
29725;DHT22;16636;48.394;15.468;2023-04-25T07:06:44;11.30;99.90
29725;DHT22;16636;48.394;15.468;2023-04-25T07:09:12;11.50;99.90
29725;DHT22;16636;48.394;15.468;2023-04-25T07:11:39;11.60;99.90
29725;DHT22;16636;48.394;15.468;2023-04-25T07:14:06;11.70;99.90
29725;DHT22;16636;48.394;15.468;2023-04-25T07:16:33;11.80;99.90
29725;DHT22;16636;48.394;15.468;2023-04-25T07:18:59;11.80;99.90
29725;DHT22;16636;48.394;15.468;2023-04-25T07:21:25;11.80;99.90
29725;DHT22;16636;48.394;15.468;2023-04-25T07:23:52;11.90;99.90
29725;DHT22;16636;48.394;15.468;2023-04-25T07:26:23;11.80;99.90
29725;DHT22;16636;48.394;15.468;2023-04-25T07:29:07;11.90;99.90
29725;DHT22;16636;48.394;15.468;2023-04-25T07:31:33;12.10;99.90
29725;DHT22;16636;48.394;15.468;2023-04-25T07:33:59;12.10;99.90
29725;DHT22;16636;48.394;15.468;2023-04-25T07:36:25;12.20;99.90
29725;DHT22;16636;48.394;15.468;2023-04-25T07:38:52;12.30;99.90
29725;DHT22;16636;48.394;15.468;2023-04-25T07:41:18;12.30;99.90
29725;DHT22;16636;48.394;15.468;2023-04-25T07:43:43;12.40;99.90
29725;DHT22;16636;48.394;15.468;2023-04-25T07:46:09;12.50;99.90
29725;DHT22;16636;48.394;15.468;2023-04-25T07:48:36;12.60;99.90
29725;DHT22;16636;48.394;15.468;2023-04-25T07:51:03;12.60;99.90
29725;DHT22;16636;48.394;15.468;2023-04-25T07:53:31;12.50;99.90
29725;DHT22;16636;48.394;15.468;2023-04-25T07:56:03;12.50;99.90
29725;DHT22;16636;48.394;15.468;2023-04-25T07:58:32;12.50;99.90
29725;DHT22;16636;48.394;15.468;2023-04-25T08:01:01;12.40;99.90
29725;DHT22;16636;48.394;15.468;2023-04-25T08:03:45;12.40;99.90
29725;DHT22;16636;48.394;15.468;2023-04-25T08:06:19;12.30;99.90
29725;DHT22;16636;48.394;15.468;2023-04-25T08:08:54;12.30;99.90
29725;DHT22;16636;48.394;15.468;2023-04-25T08:11:24;12.30;99.90
29725;DHT22;16636;48.394;15.468;2023-04-25T08:13:51;12.20;99.90
29725;DHT22;16636;48.394;15.468;2023-04-25T08:16:16;12.30;99.90
29725;DHT22;16636;48.394;15.468;2023-04-25T08:18:42;12.30;99.90
29725;DHT22;16636;48.394;15.468;2023-04-25T08:21:08;12.30;99.90
29725;DHT22;16636;48.394;15.468;2023-04-25T08:23:38;12.40;99.90
29725;DHT22;16636;48.394;15.468;2023-04-25T08:26:10;12.50;99.90
29725;DHT22;16636;48.394;15.468;2023-04-25T08:28:39;12.60;99.90
29725;DHT22;16636;48.394;15.468;2023-04-25T08:31:04;12.70;99.90
29725;DHT22;16636;48.394;15.468;2023-04-25T08:33:38;12.80;99.90
29725;DHT22;16636;48.394;15.468;2023-04-25T08:36:17;13.00;99.90
29725;DHT22;16636;48.394;15.468;2023-04-25T08:38:43;13.20;99.90
29725;DHT22;16636;48.394;15.468;2023-04-25T08:41:10;13.30;99.90
29725;DHT22;16636;48.394;15.468;2023-04-25T08:43:37;13.50;99.90
29725;DHT22;16636;48.394;15.468;2023-04-25T08:46:03;13.60;99.90
29725;DHT22;16636;48.394;15.468;2023-04-25T08:48:40;13.80;99.90
29725;DHT22;16636;48.394;15.468;2023-04-25T08:51:06;13.80;99.90
29725;DHT22;16636;48.394;15.468;2023-04-25T08:53:32;13.90;99.90
29725;DHT22;16636;48.394;15.468;2023-04-25T08:56:02;13.90;99.90
29725;DHT22;16636;48.394;15.468;2023-04-25T08:58:32;13.90;99.90
29725;DHT22;16636;48.394;15.468;2023-04-25T09:00:58;13.80;99.90
29725;DHT22;16636;48.394;15.468;2023-04-25T09:03:27;13.90;99.90
29725;DHT22;16636;48.394;15.468;2023-04-25T09:05:53;14.00;99.90
29725;DHT22;16636;48.394;15.468;2023-04-25T09:08:20;14.00;99.90
29725;DHT22;16636;48.394;15.468;2023-04-25T09:10:46;13.90;99.90
29725;DHT22;16636;48.394;15.468;2023-04-25T09:13:14;13.80;99.90
29725;DHT22;16636;48.394;15.468;2023-04-25T09:16:06;13.80;99.90
29725;DHT22;16636;48.394;15.468;2023-04-25T09:18:57;13.70;99.90
29725;DHT22;16636;48.394;15.468;2023-04-25T09:21:23;13.90;99.90
29725;DHT22;16636;48.394;15.468;2023-04-25T09:23:50;13.90;99.90
29725;DHT22;16636;48.394;15.468;2023-04-25T09:26:18;13.90;99.90
29725;DHT22;16636;48.394;15.468;2023-04-25T09:28:45;13.80;99.90
29725;DHT22;16636;48.394;15.468;2023-04-25T09:31:22;13.80;99.90
29725;DHT22;16636;48.394;15.468;2023-04-25T09:33:50;13.80;99.90
29725;DHT22;16636;48.394;15.468;2023-04-25T09:36:25;13.90;99.90
29725;DHT22;16636;48.394;15.468;2023-04-25T09:39:02;14.10;99.90
29725;DHT22;16636;48.394;15.468;2023-04-25T09:41:32;14.30;99.90
29725;DHT22;16636;48.394;15.468;2023-04-25T09:44:03;14.30;99.90
29725;DHT22;16636;48.394;15.468;2023-04-25T09:46:34;14.20;99.90
29725;DHT22;16636;48.394;15.468;2023-04-25T09:49:06;14.20;99.90
29725;DHT22;16636;48.394;15.468;2023-04-25T09:51:38;14.20;99.90
29725;DHT22;16636;48.394;15.468;2023-04-25T09:54:06;14.30;99.90
29725;DHT22;16636;48.394;15.468;2023-04-25T09:56:36;14.30;99.90
29725;DHT22;16636;48.394;15.468;2023-04-25T09:59:06;14.30;99.90
29725;DHT22;16636;48.394;15.468;2023-04-25T10:01:34;14.50;99.90
29725;DHT22;16636;48.394;15.468;2023-04-25T10:04:11;14.60;99.90
29725;DHT22;16636;48.394;15.468;2023-04-25T10:06:49;14.50;99.90
29725;DHT22;16636;48.394;15.468;2023-04-25T10:09:17;14.50;99.90
29725;DHT22;16636;48.394;15.468;2023-04-25T10:11:46;14.40;99.90
29725;DHT22;16636;48.394;15.468;2023-04-25T10:14:13;14.30;99.90
29725;DHT22;16636;48.394;15.468;2023-04-25T10:16:39;14.20;99.90
29725;DHT22;16636;48.394;15.468;2023-04-25T10:19:06;14.10;99.90
29725;DHT22;16636;48.394;15.468;2023-04-25T10:21:32;14.10;99.90
29725;DHT22;16636;48.394;15.468;2023-04-25T10:23:59;14.10;99.90
29725;DHT22;16636;48.394;15.468;2023-04-25T10:26:25;14.10;99.90
29725;DHT22;16636;48.394;15.468;2023-04-25T10:29:00;14.00;99.90
29725;DHT22;16636;48.394;15.468;2023-04-25T10:31:27;14.00;99.90
29725;DHT22;16636;48.394;15.468;2023-04-25T10:33:53;14.00;99.90
29725;DHT22;16636;48.394;15.468;2023-04-25T10:36:19;14.00;99.90
29725;DHT22;16636;48.394;15.468;2023-04-25T10:38:47;13.80;99.90
29725;DHT22;16636;48.394;15.468;2023-04-25T10:41:14;13.70;99.90
29725;DHT22;16636;48.394;15.468;2023-04-25T10:43:40;13.70;99.90
29725;DHT22;16636;48.394;15.468;2023-04-25T10:46:15;13.70;99.90
29725;DHT22;16636;48.394;15.468;2023-04-25T10:48:45;13.70;99.90
29725;DHT22;16636;48.394;15.468;2023-04-25T10:51:16;13.70;99.90
29725;DHT22;16636;48.394;15.468;2023-04-25T10:53:45;13.60;99.90
29725;DHT22;16636;48.394;15.468;2023-04-25T10:58:44;13.30;99.90
29725;DHT22;16636;48.394;15.468;2023-04-25T11:01:12;13.20;99.90
29725;DHT22;16636;48.394;15.468;2023-04-25T11:03:39;13.20;99.90
29725;DHT22;16636;48.394;15.468;2023-04-25T11:06:06;13.20;99.90
29725;DHT22;16636;48.394;15.468;2023-04-25T11:08:46;13.30;99.90
29725;DHT22;16636;48.394;15.468;2023-04-25T11:11:13;13.30;99.90
29725;DHT22;16636;48.394;15.468;2023-04-25T11:13:38;13.30;99.90
29725;DHT22;16636;48.394;15.468;2023-04-25T11:16:06;13.30;99.90
29725;DHT22;16636;48.394;15.468;2023-04-25T11:18:32;13.20;99.90
29725;DHT22;16636;48.394;15.468;2023-04-25T11:20:59;13.10;99.90
29725;DHT22;16636;48.394;15.468;2023-04-25T11:23:26;12.90;99.90
29725;DHT22;16636;48.394;15.468;2023-04-25T11:25:52;12.70;99.90
29725;DHT22;16636;48.394;15.468;2023-04-25T11:28:21;12.60;99.90
29725;DHT22;16636;48.394;15.468;2023-04-25T11:30:50;12.30;99.90
29725;DHT22;16636;48.394;15.468;2023-04-25T11:33:16;12.00;99.90
29725;DHT22;16636;48.394;15.468;2023-04-25T11:35:42;11.80;99.90
29725;DHT22;16636;48.394;15.468;2023-04-25T11:38:08;11.80;99.90
29725;DHT22;16636;48.394;15.468;2023-04-25T11:40:38;11.80;99.90
29725;DHT22;16636;48.394;15.468;2023-04-25T11:43:03;11.80;99.90
29725;DHT22;16636;48.394;15.468;2023-04-25T11:45:30;11.90;99.90
29725;DHT22;16636;48.394;15.468;2023-04-25T11:47:59;12.10;99.90
29725;DHT22;16636;48.394;15.468;2023-04-25T11:50:25;12.30;99.90
29725;DHT22;16636;48.394;15.468;2023-04-25T11:52:55;12.70;99.90
29725;DHT22;16636;48.394;15.468;2023-04-25T11:55:21;13.20;99.90
29725;DHT22;16636;48.394;15.468;2023-04-25T11:57:48;13.70;99.90
29725;DHT22;16636;48.394;15.468;2023-04-25T12:00:16;14.10;99.90
29725;DHT22;16636;48.394;15.468;2023-04-25T12:02:43;14.40;99.90
29725;DHT22;16636;48.394;15.468;2023-04-25T12:05:09;14.60;99.90
29725;DHT22;16636;48.394;15.468;2023-04-25T12:07:35;14.70;99.90
29725;DHT22;16636;48.394;15.468;2023-04-25T12:10:09;14.50;99.90
29725;DHT22;16636;48.394;15.468;2023-04-25T12:12:36;14.40;99.90
29725;DHT22;16636;48.394;15.468;2023-04-25T12:15:12;14.50;99.90
29725;DHT22;16636;48.394;15.468;2023-04-25T12:17:41;14.50;99.90
29725;DHT22;16636;48.394;15.468;2023-04-25T12:20:11;14.70;99.90
29725;DHT22;16636;48.394;15.468;2023-04-25T12:22:37;14.80;99.90
29725;DHT22;16636;48.394;15.468;2023-04-25T12:25:04;14.90;99.90
29725;DHT22;16636;48.394;15.468;2023-04-25T12:27:30;14.90;99.90
29725;DHT22;16636;48.394;15.468;2023-04-25T12:29:57;14.70;99.90
29725;DHT22;16636;48.394;15.468;2023-04-25T12:32:23;14.70;99.90
29725;DHT22;16636;48.394;15.468;2023-04-25T12:34:48;14.60;99.90
29725;DHT22;16636;48.394;15.468;2023-04-25T12:37:14;14.70;99.90
29725;DHT22;16636;48.394;15.468;2023-04-25T12:39:41;15.10;99.90
29725;DHT22;16636;48.394;15.468;2023-04-25T12:42:07;15.00;99.90
29725;DHT22;16636;48.394;15.468;2023-04-25T12:44:38;14.70;99.90
29725;DHT22;16636;48.394;15.468;2023-04-25T12:47:04;14.40;99.90
29725;DHT22;16636;48.394;15.468;2023-04-25T12:49:31;14.20;99.90
29725;DHT22;16636;48.394;15.468;2023-04-25T12:51:57;14.00;99.90
29725;DHT22;16636;48.394;15.468;2023-04-25T12:54:23;13.60;99.90
29725;DHT22;16636;48.394;15.468;2023-04-25T12:56:49;13.40;99.90
29725;DHT22;16636;48.394;15.468;2023-04-25T12:59:16;13.30;99.90
29725;DHT22;16636;48.394;15.468;2023-04-25T13:01:42;13.30;99.90
29725;DHT22;16636;48.394;15.468;2023-04-25T13:04:08;13.10;99.90
29725;DHT22;16636;48.394;15.468;2023-04-25T13:06:34;12.90;99.90
29725;DHT22;16636;48.394;15.468;2023-04-25T13:08:59;12.80;99.90
29725;DHT22;16636;48.394;15.468;2023-04-25T13:11:26;12.70;99.90
29725;DHT22;16636;48.394;15.468;2023-04-25T13:13:52;12.90;99.90
29725;DHT22;16636;48.394;15.468;2023-04-25T13:16:17;13.20;99.90
29725;DHT22;16636;48.394;15.468;2023-04-25T13:18:46;13.10;99.90
29725;DHT22;16636;48.394;15.468;2023-04-25T13:21:12;13.00;99.90
29725;DHT22;16636;48.394;15.468;2023-04-25T13:23:38;12.80;99.90
29725;DHT22;16636;48.394;15.468;2023-04-25T13:26:04;12.60;99.90
29725;DHT22;16636;48.394;15.468;2023-04-25T13:28:30;12.40;99.90
29725;DHT22;16636;48.394;15.468;2023-04-25T13:30:56;12.30;99.90
29725;DHT22;16636;48.394;15.468;2023-04-25T13:33:22;12.10;99.90
29725;DHT22;16636;48.394;15.468;2023-04-25T13:35:48;12.00;99.90
29725;DHT22;16636;48.394;15.468;2023-04-25T13:38:23;11.80;99.90
29725;DHT22;16636;48.394;15.468;2023-04-25T13:40:49;11.60;99.90
29725;DHT22;16636;48.394;15.468;2023-04-25T13:43:18;11.40;99.90
29725;DHT22;16636;48.394;15.468;2023-04-25T13:45:44;11.30;99.90
29725;DHT22;16636;48.394;15.468;2023-04-25T13:48:10;11.30;99.90
29725;DHT22;16636;48.394;15.468;2023-04-25T13:50:36;11.20;99.90
29725;DHT22;16636;48.394;15.468;2023-04-25T13:53:02;11.10;99.90
29725;DHT22;16636;48.394;15.468;2023-04-25T13:55:28;11.00;99.90
29725;DHT22;16636;48.394;15.468;2023-04-25T13:57:53;11.00;99.90
29725;DHT22;16636;48.394;15.468;2023-04-25T14:00:19;11.00;99.90
29725;DHT22;16636;48.394;15.468;2023-04-25T14:02:45;10.90;99.90
29725;DHT22;16636;48.394;15.468;2023-04-25T14:05:11;10.90;99.90
29725;DHT22;16636;48.394;15.468;2023-04-25T14:07:38;10.80;99.90
29725;DHT22;16636;48.394;15.468;2023-04-25T14:10:04;10.80;99.90
29725;DHT22;16636;48.394;15.468;2023-04-25T14:12:31;10.80;99.90
29725;DHT22;16636;48.394;15.468;2023-04-25T14:14:57;10.80;99.90
29725;DHT22;16636;48.394;15.468;2023-04-25T14:17:23;10.90;99.90
29725;DHT22;16636;48.394;15.468;2023-04-25T14:19:49;10.90;99.90
29725;DHT22;16636;48.394;15.468;2023-04-25T14:22:15;11.10;99.90
29725;DHT22;16636;48.394;15.468;2023-04-25T14:24:41;11.20;99.90
29725;DHT22;16636;48.394;15.468;2023-04-25T14:27:07;11.30;99.90
29725;DHT22;16636;48.394;15.468;2023-04-25T14:29:33;11.40;99.90
29725;DHT22;16636;48.394;15.468;2023-04-25T14:31:59;11.40;99.90
29725;DHT22;16636;48.394;15.468;2023-04-25T14:34:25;11.40;99.90
29725;DHT22;16636;48.394;15.468;2023-04-25T14:36:52;11.40;99.90
29725;DHT22;16636;48.394;15.468;2023-04-25T14:39:18;11.20;99.90
29725;DHT22;16636;48.394;15.468;2023-04-25T14:41:44;11.20;99.90
29725;DHT22;16636;48.394;15.468;2023-04-25T14:44:09;11.20;99.90
29725;DHT22;16636;48.394;15.468;2023-04-25T14:46:35;11.10;99.90
29725;DHT22;16636;48.394;15.468;2023-04-25T14:49:02;11.00;99.90
29725;DHT22;16636;48.394;15.468;2023-04-25T14:51:28;10.90;99.90
29725;DHT22;16636;48.394;15.468;2023-04-25T14:53:55;10.90;99.90
29725;DHT22;16636;48.394;15.468;2023-04-25T14:56:21;10.90;99.90
29725;DHT22;16636;48.394;15.468;2023-04-25T14:58:47;10.90;99.90
29725;DHT22;16636;48.394;15.468;2023-04-25T15:01:13;11.00;99.90
29725;DHT22;16636;48.394;15.468;2023-04-25T15:03:41;11.00;99.90
29725;DHT22;16636;48.394;15.468;2023-04-25T15:06:07;11.00;99.90
29725;DHT22;16636;48.394;15.468;2023-04-25T15:11:45;11.00;99.90
29725;DHT22;16636;48.394;15.468;2023-04-25T15:14:11;11.10;99.90
29725;DHT22;16636;48.394;15.468;2023-04-25T15:16:37;11.10;99.90
29725;DHT22;16636;48.394;15.468;2023-04-25T15:19:03;11.00;99.90
29725;DHT22;16636;48.394;15.468;2023-04-25T15:21:30;11.00;99.90
29725;DHT22;16636;48.394;15.468;2023-04-25T15:23:56;11.00;99.90
29725;DHT22;16636;48.394;15.468;2023-04-25T15:26:22;11.00;99.90
29725;DHT22;16636;48.394;15.468;2023-04-25T15:28:47;11.00;99.90
29725;DHT22;16636;48.394;15.468;2023-04-25T15:31:14;10.90;99.90
29725;DHT22;16636;48.394;15.468;2023-04-25T15:33:39;10.80;99.90
29725;DHT22;16636;48.394;15.468;2023-04-25T15:36:05;10.80;99.90